Time;durP1;ratioP1;P1;durP2;ratioP2;P2;SDS_P1;SDS_P2;PMS_P1;PMS_P2;Temp;Humidity;BMP_temperature;BMP_pressure;BME280_temperature;BME280_humidity;BME280_pressure;Samples;Min_cycle;Max_cycle;Signal;HPM_P1;HPM_P2
2022/08/09 00:01:29;;;;;;;;;9.67;9.67;;;;;22.93;43.96;101879.88;5081654;28;45387;-75
2022/08/09 00:03:54;;;;;;;;;10.33;10.00;;;;;22.91;44.11;101879.28;5081780;28;45280;-75
2022/08/09 00:06:19;;;;;;;;;11.00;11.00;;;;;22.88;44.27;101877.03;5087298;27;46133;-75
2022/08/09 00:08:47;;;;;;;;;11.00;11.00;;;;;22.84;44.43;101873.97;5081599;28;45401;-74
2022/08/09 00:11:15;;;;;;;;;8.67;8.33;;;;;22.85;44.86;101877.47;5081836;28;45594;-75
2022/08/09 00:13:40;;;;;;;;;11.33;10.00;;;;;22.81;44.61;101880.66;5080129;28;45338;-74
2022/08/09 00:16:06;;;;;;;;;13.00;11.67;;;;;22.75;44.87;101884.28;5084307;27;45463;-74
2022/08/09 00:18:33;;;;;;;;;12.00;10.00;;;;;22.72;44.94;101870.38;5088434;27;48718;-74
2022/08/09 00:20:58;;;;;;;;;11.67;11.67;;;;;22.75;44.64;101883.47;5081399;28;45291;-74
2022/08/09 00:23:23;;;;;;;;;11.00;10.33;;;;;22.75;44.79;101884.28;5081128;28;45346;-75
2022/08/09 00:25:49;;;;;;;;;12.67;12.67;;;;;22.72;44.74;101875.78;5081037;28;45736;-74
2022/08/09 00:28:14;;;;;;;;;10.33;10.33;;;;;22.66;44.85;101875.63;5081125;28;45348;-75
2022/08/09 00:30:39;;;;;;;;;13.00;12.00;;;;;22.68;44.90;101887.06;5086426;27;45576;-74
2022/08/09 00:33:04;;;;;;;;;10.67;10.67;;;;;22.66;45.58;101874.81;5079728;28;45395;-74
2022/08/09 00:35:30;;;;;;;;;11.00;11.00;;;;;22.61;45.58;101866.53;5081403;28;45298;-74
2022/08/09 00:37:55;;;;;;;;;9.67;9.67;;;;;22.59;45.71;101877.59;5080912;28;45344;-74
2022/08/09 00:40:21;;;;;;;;;12.67;12.67;;;;;22.55;45.33;101869.09;5081044;28;45339;-74
2022/08/09 00:42:46;;;;;;;;;11.67;11.33;;;;;22.54;45.59;101866.59;5081118;28;45289;-74
2022/08/09 00:45:11;;;;;;;;;10.67;9.67;;;;;22.50;45.42;101862.69;5093994;27;47441;-74
2022/08/09 00:47:37;;;;;;;;;13.00;13.00;;;;;22.41;45.89;101857.59;5081042;28;45303;-74
2022/08/09 00:50:02;;;;;;;;;11.00;10.67;;;;;22.44;46.12;101867.13;5080805;28;45574;-74
2022/08/09 00:52:29;;;;;;;;;13.00;13.00;;;;;22.40;46.15;101855.09;5080830;28;45401;-75
2022/08/09 00:54:55;;;;;;;;;12.00;11.33;;;;;22.36;45.93;101857.47;5079433;28;46311;-74
2022/08/09 00:57:20;;;;;;;;;12.67;12.67;;;;;22.30;46.16;101859.16;5080482;28;46171;-75
2022/08/09 00:59:46;;;;;;;;;10.00;10.00;;;;;22.29;46.25;101856.69;5079479;28;45488;-74
2022/08/09 01:02:18;;;;;;;;;12.67;12.00;;;;;22.26;46.93;101857.13;5081044;28;45294;-74
2022/08/09 01:05:07;;;;;;;;;12.67;12.00;;;;;22.20;47.16;101869.69;5080704;28;45476;-74
2022/08/09 01:07:45;;;;;;;;;12.33;12.33;;;;;22.13;47.05;101866.25;5080039;27;45331;-75
2022/08/09 01:10:50;;;;;;;;;11.00;11.00;;;;;22.07;47.16;101859.84;5080303;28;45521;-75
2022/08/09 01:13:24;;;;;;;;;11.67;11.67;;;;;22.04;47.00;101853.03;5062349;28;45236;-74
2022/08/09 01:15:52;;;;;;;;;12.00;12.00;;;;;22.01;47.09;101861.59;5095163;27;47045;-75
2022/08/09 01:18:27;;;;;;;;;12.67;11.33;;;;;22.00;47.99;101865.31;5089303;27;45438;-76
2022/08/09 01:21:37;;;;;;;;;11.00;11.00;;;;;21.94;47.50;101871.66;5075697;28;45340;-74
2022/08/09 01:24:33;;;;;;;;;11.00;11.00;;;;;21.91;47.99;101863.97;5070010;28;45402;-74
2022/08/09 01:27:07;;;;;;;;;11.00;11.00;;;;;21.88;47.76;101869.84;5082884;27;46220;-74
2022/08/09 01:29:41;;;;;;;;;11.00;11.00;;;;;21.81;48.02;101870.72;5080073;28;45430;-75
2022/08/09 01:32:09;;;;;;;;;13.33;13.33;;;;;21.75;48.24;101863.50;5080245;28;45266;-75
2022/08/09 01:34:38;;;;;;;;;11.33;10.00;;;;;21.76;48.29;101861.63;5080160;28;45326;-74
2022/08/09 01:37:06;;;;;;;;;11.33;11.33;;;;;21.69;48.86;101865.19;5080155;28;45633;-73
2022/08/09 01:39:34;;;;;;;;;10.00;10.00;;;;;21.67;48.21;101863.75;5088191;27;47103;-75
2022/08/09 01:42:02;;;;;;;;;10.33;10.00;;;;;21.54;48.84;101846.59;5078376;28;45678;-74
2022/08/09 01:44:29;;;;;;;;;11.00;11.00;;;;;21.54;48.72;101853.88;5080172;28;45320;-74
2022/08/09 01:46:57;;;;;;;;;7.00;7.00;;;;;21.46;48.99;101854.97;5092933;27;46546;-75
2022/08/09 01:49:24;;;;;;;;;11.00;11.00;;;;;21.50;49.69;101864.31;5079902;28;46202;-74
2022/08/09 01:51:56;;;;;;;;;11.33;10.00;;;;;21.45;49.37;101861.44;5079902;28;45914;-74
2022/08/09 01:54:28;;;;;;;;;14.33;14.00;;;;;21.46;49.67;101863.06;5079920;28;45264;-75
2022/08/09 01:56:56;;;;;;;;;12.67;10.00;;;;;21.40;49.44;101863.97;5078346;28;46211;-74
2022/08/09 01:59:23;;;;;;;;;11.33;9.67;;;;;21.37;49.88;101848.19;5079810;28;46061;-74
2022/08/09 02:01:52;;;;;;;;;12.67;12.67;;;;;21.40;49.63;101863.97;5089764;27;45278;-75
2022/08/09 02:04:19;;;;;;;;;11.67;11.33;;;;;21.29;50.20;101849.28;5078507;28;45358;-76
2022/08/09 02:09:36;;;;;;;;;12.00;12.00;;;;;21.24;49.99;101852.66;5079251;28;45669;-74
2022/08/09 02:12:04;;;;;;;;;10.33;10.33;;;;;21.28;50.52;101861.97;5088803;27;45389;-74
2022/08/09 02:14:31;;;;;;;;;11.00;10.33;;;;;21.23;50.35;101869.94;5075039;28;45354;-75
2022/08/09 02:16:57;;;;;;;;;11.00;10.67;;;;;21.22;50.14;101862.84;5089441;27;46347;-75
2022/08/09 02:19:23;;;;;;;;;9.67;9.33;;;;;21.20;50.71;101856.84;5080437;27;45399;-74
2022/08/09 02:21:53;;;;;;;;;8.00;8.00;;;;;21.16;51.05;101864.53;5081629;27;45824;-74
2022/08/09 02:24:23;;;;;;;;;9.67;9.67;;;;;21.12;51.21;101860.63;5079575;28;45248;-74
2022/08/09 02:26:54;;;;;;;;;10.00;10.00;;;;;21.06;50.96;101859.63;5079419;28;45438;-74
2022/08/09 02:29:26;;;;;;;;;11.33;11.33;;;;;20.99;51.47;101860.72;5078956;28;45393;-74
2022/08/09 02:31:58;;;;;;;;;11.00;11.00;;;;;20.96;51.45;101862.00;5079043;28;45548;-74
2022/08/09 02:34:27;;;;;;;;;9.67;9.67;;;;;20.94;51.68;101864.91;5079513;28;45368;-74
2022/08/09 02:36:55;;;;;;;;;10.67;9.00;;;;;20.90;52.33;101862.84;5079061;28;45423;-75
2022/08/09 02:39:29;;;;;;;;;10.00;10.00;;;;;20.85;51.88;101857.22;5078469;28;45493;-74
2022/08/09 02:42:27;;;;;;;;;9.00;9.00;;;;;20.88;51.89;101873.00;5092977;27;46139;-74
2022/08/09 02:44:59;;;;;;;;;10.33;10.33;;;;;20.82;52.08;101863.91;5074639;28;45291;-74
2022/08/09 02:47:27;;;;;;;;;8.33;8.33;;;;;20.77;52.07;101858.31;5082068;27;46027;-74
2022/08/09 02:50:05;;;;;;;;;10.00;10.00;;;;;20.75;52.46;101863.94;5077596;28;46387;-74
2022/08/09 02:52:46;;;;;;;;;9.00;9.00;;;;;20.76;52.61;101875.56;5077646;28;45354;-74
2022/08/09 02:55:14;;;;;;;;;10.00;10.00;;;;;20.73;52.73;101859.78;5079127;28;45189;-74
2022/08/09 02:57:40;;;;;;;;;11.67;9.33;;;;;20.68;52.56;101850.47;5077317;28;46068;-74
2022/08/09 03:00:11;;;;;;;;;10.67;10.67;;;;;20.62;52.95;101848.59;5078643;28;46839;-74
2022/08/09 03:02:38;;;;;;;;;10.00;10.00;;;;;20.53;53.13;101837.22;5077513;28;45836;-74
2022/08/09 03:05:07;;;;;;;;;9.67;9.67;;;;;20.52;53.87;101843.69;5079075;28;45546;-74
2022/08/09 03:07:35;;;;;;;;;11.00;11.00;;;;;20.44;53.18;101841.22;5078631;28;45491;-75
2022/08/09 03:10:02;;;;;;;;;11.00;11.00;;;;;20.47;53.31;101853.47;5078766;28;46383;-74
2022/08/09 03:12:28;;;;;;;;;14.33;12.33;;;;;20.41;53.59;101852.47;5078231;28;45647;-74
2022/08/09 03:14:55;;;;;;;;;11.00;10.00;;;;;20.38;54.03;101852.88;5084347;27;45466;-74
2022/08/09 03:17:22;;;;;;;;;12.33;12.33;;;;;20.37;53.97;101854.75;5089908;27;46074;-74
2022/08/09 03:19:48;;;;;;;;;11.67;10.00;;;;;20.34;53.61;101857.03;5077122;28;47325;-75
2022/08/09 03:22:14;;;;;;;;;9.67;9.67;;;;;20.24;53.98;101847.53;5078902;28;45425;-74
2022/08/09 03:24:40;;;;;;;;;10.33;10.33;;;;;20.24;54.49;101855.63;5078668;28;45342;-74
2022/08/09 03:27:08;;;;;;;;;10.33;10.00;;;;;20.22;54.30;101859.56;5078313;28;45234;-75
2022/08/09 03:29:35;;;;;;;;;10.00;10.00;;;;;20.21;54.43;101861.44;5078355;28;45686;-74
2022/08/09 03:32:02;;;;;;;;;12.67;12.00;;;;;20.20;54.53;101867.88;5078626;28;45532;-75
2022/08/09 03:34:28;;;;;;;;;11.00;9.67;;;;;20.15;54.89;101863.13;5073979;28;45405;-75
2022/08/09 03:36:55;;;;;;;;;13.00;13.00;;;;;20.19;54.72;101871.63;5077468;28;45345;-74
2022/08/09 03:39:23;;;;;;;;;11.67;11.33;;;;;20.12;55.09;101857.31;5078424;28;45797;-74
2022/08/09 03:41:49;;;;;;;;;8.33;8.33;;;;;20.09;55.66;101863.97;5078289;28;45401;-74
2022/08/09 03:44:14;;;;;;;;;11.00;11.00;;;;;20.08;55.60;101867.69;5078629;28;45319;-75
2022/08/09 03:46:40;;;;;;;;;9.33;9.33;;;;;20.07;55.27;101876.84;5088105;27;46196;-75
2022/08/09 03:49:07;;;;;;;;;11.67;11.67;;;;;20.06;55.63;101877.88;5065566;28;46394;-75
2022/08/09 03:51:34;;;;;;;;;9.33;9.33;;;;;20.03;55.76;101878.31;5079806;28;45405;-75
2022/08/09 03:53:59;;;;;;;;;7.67;7.67;;;;;19.99;55.76;101867.06;5080410;28;45458;-75
2022/08/09 03:56:25;;;;;;;;;12.33;12.33;;;;;19.96;55.85;101863.97;5080053;28;45977;-74
2022/08/09 03:58:50;;;;;;;;;12.33;9.67;;;;;19.98;55.79;101860.00;5081704;28;45314;-74
2022/08/09 04:01:16;;;;;;;;;10.00;10.00;;;;;19.94;55.93;101870.38;5082088;28;45256;-75
2022/08/09 04:03:42;;;;;;;;;9.67;9.67;;;;;19.94;55.63;101866.88;5081831;28;45299;-75
2022/08/09 04:06:08;;;;;;;;;12.67;11.00;;;;;19.91;56.24;101868.09;5084725;27;46018;-75
2022/08/09 04:08:33;;;;;;;;;8.33;7.67;;;;;19.90;56.53;101863.75;5081476;28;45417;-75
2022/08/09 04:10:59;;;;;;;;;10.33;10.33;;;;;19.91;56.21;101864.59;5081296;28;45539;-75
2022/08/09 04:13:24;;;;;;;;;8.33;8.33;;;;;19.89;56.25;101862.09;5081698;28;45477;-74
2022/08/09 04:15:49;;;;;;;;;10.67;10.67;;;;;19.87;56.20;101864.16;5083358;27;45391;-74
2022/08/09 04:18:15;;;;;;;;;10.67;10.67;;;;;19.86;56.33;101872.47;5091309;27;47756;-75
2022/08/09 04:20:41;;;;;;;;;10.33;10.33;;;;;19.88;56.57;101875.78;5081485;28;45396;-75
2022/08/09 04:23:07;;;;;;;;;11.00;10.00;;;;;19.82;56.50;101872.06;5081342;28;45785;-74
2022/08/09 04:25:33;;;;;;;;;12.00;10.67;;;;;19.86;56.97;101875.16;5081130;28;45234;-74
2022/08/09 04:27:58;;;;;;;;;10.00;9.33;;;;;19.81;56.57;101871.22;5079606;28;47267;-74
2022/08/09 04:30:24;;;;;;;;;10.00;10.00;;;;;19.84;57.00;101878.06;5081391;28;45403;-74
2022/08/09 04:32:50;;;;;;;;;7.00;7.00;;;;;19.78;57.11;101871.66;5081453;28;45160;-75
2022/08/09 04:35:15;;;;;;;;;8.67;8.67;;;;;19.79;56.72;101883.28;5079869;28;46284;-74
2022/08/09 04:37:41;;;;;;;;;12.00;12.00;;;;;19.78;57.18;101890.53;5081119;28;45316;-75
2022/08/09 04:40:07;;;;;;;;;13.33;13.33;;;;;19.74;56.95;101897.38;5079744;28;45241;-75
2022/08/09 04:42:33;;;;;;;;;8.67;8.67;;;;;19.73;57.23;101893.03;5080986;28;45251;-74
2022/08/09 04:44:59;;;;;;;;;11.00;11.00;;;;;19.73;57.43;101898.44;5080721;28;45455;-74
2022/08/09 04:47:25;;;;;;;;;8.67;8.67;;;;;19.70;57.44;101893.44;5076535;28;47316;-74
2022/08/09 04:49:51;;;;;;;;;11.00;10.67;;;;;19.70;57.40;101893.44;5074285;28;45351;-75
2022/08/09 04:52:16;;;;;;;;;8.00;7.33;;;;;19.63;57.31;101884.53;5081025;28;45506;-75
2022/08/09 04:54:42;;;;;;;;;10.00;8.33;;;;;19.67;57.71;101896.56;5080693;28;45307;-75
2022/08/09 04:57:08;;;;;;;;;10.33;9.00;;;;;19.62;57.74;101896.34;5079280;28;48464;-74
2022/08/09 04:59:33;;;;;;;;;14.33;14.33;;;;;19.57;57.46;101888.88;5079465;28;45357;-75
2022/08/09 05:01:58;;;;;;;;;15.33;14.00;;;;;19.61;57.68;101892.00;5078776;28;45326;-75
2022/08/09 05:04:24;;;;;;;;;12.33;12.33;;;;;19.62;57.41;101899.88;5079372;28;46069;-75
2022/08/09 05:06:49;;;;;;;;;12.00;12.00;;;;;19.59;57.68;101894.88;5080705;28;45457;-74
2022/08/09 05:09:15;;;;;;;;;10.67;10.67;;;;;19.57;57.99;101898.84;5080460;28;45332;-74
2022/08/09 05:11:41;;;;;;;;;11.00;11.00;;;;;19.57;57.65;101904.22;5080510;28;45349;-75
2022/08/09 05:14:06;;;;;;;;;11.00;10.33;;;;;19.58;58.22;101900.50;5070542;28;45468;-74
2022/08/09 05:16:34;;;;;;;;;7.67;7.67;;;;;19.54;58.35;101903.59;5081238;27;47226;-75
2022/08/09 05:19:00;;;;;;;;;9.00;9.00;;;;;19.58;58.00;101905.88;5071165;28;45348;-76
2022/08/09 05:21:26;;;;;;;;;8.33;8.33;;;;;19.58;57.90;101897.78;5080429;27;45386;-74
2022/08/09 05:23:52;;;;;;;;;9.00;9.00;;;;;19.62;57.96;101907.13;5086102;27;46295;-79
2022/08/09 05:26:18;;;;;;;;;13.50;12.00;;;;;19.60;58.33;101909.22;5081771;28;45416;-78
2022/08/09 05:28:43;;;;;;;;;12.00;12.00;;;;;19.60;58.09;101906.53;5081317;28;45346;-77
2022/08/09 05:31:08;;;;;;;;;10.00;10.00;;;;;19.59;58.23;101904.84;5090733;27;45362;-78
2022/08/09 05:33:34;;;;;;;;;9.00;9.00;;;;;19.59;58.61;101905.69;5081529;28;45530;-78
2022/08/09 05:35:59;;;;;;;;;13.67;12.00;;;;;19.61;58.72;101910.88;5081006;28;46413;-79
2022/08/09 05:38:25;;;;;;;;;11.67;11.33;;;;;19.62;58.86;101909.81;5079525;28;45988;-78
2022/08/09 05:40:50;;;;;;;;;10.00;9.00;;;;;19.63;57.83;101911.50;5080467;28;45336;-78
2022/08/09 05:43:16;;;;;;;;;8.67;8.67;;;;;19.63;58.30;101911.50;5080579;28;45457;-78
2022/08/09 05:45:41;;;;;;;;;11.00;10.67;;;;;19.66;58.65;101911.06;5083323;27;47416;-78
2022/08/09 05:48:06;;;;;;;;;8.33;8.33;;;;;19.65;58.37;101909.41;5080169;28;48130;-78
2022/08/09 05:50:32;;;;;;;;;11.00;10.33;;;;;19.67;58.07;101910.03;5081368;28;45471;-79
2022/08/09 05:52:57;;;;;;;;;9.33;9.33;;;;;19.70;58.40;101917.72;5067464;28;46349;-78
2022/08/09 05:55:23;;;;;;;;;11.67;11.00;;;;;19.72;58.27;101923.72;5077428;28;45471;-74
2022/08/09 05:57:49;;;;;;;;;13.67;12.00;;;;;19.70;58.63;101922.28;5079992;27;45259;-74
2022/08/09 06:00:14;;;;;;;;;9.00;8.33;;;;;19.67;58.97;101920.81;5080174;28;45313;-75
2022/08/09 06:02:40;;;;;;;;;11.00;10.33;;;;;19.69;59.26;101924.13;5078237;28;46575;-76
2022/08/09 06:05:06;;;;;;;;;11.67;10.33;;;;;19.68;59.26;101926.00;5072307;28;46298;-75
2022/08/09 06:07:33;;;;;;;;;10.67;10.33;;;;;19.70;59.12;101928.50;5071372;28;45827;-75
2022/08/09 06:09:59;;;;;;;;;9.33;9.33;;;;;19.72;59.11;101923.72;5079595;28;45716;-76
2022/08/09 06:12:24;;;;;;;;;8.33;8.33;;;;;19.74;59.06;101924.34;5079406;28;45483;-75
2022/08/09 06:14:49;;;;;;;;;10.33;10.33;;;;;19.73;59.48;101928.09;5078447;28;45708;-76
2022/08/09 06:17:15;;;;;;;;;10.00;10.00;;;;;19.76;59.22;101922.28;5084620;27;45279;-75
2022/08/09 06:19:40;;;;;;;;;12.00;8.67;;;;;19.83;59.07;101943.84;5079494;28;45297;-76
2022/08/09 06:22:06;;;;;;;;;9.33;9.33;;;;;19.86;58.89;101932.66;5079541;28;45275;-77
2022/08/09 06:24:31;;;;;;;;;10.00;10.00;;;;;19.91;59.34;101927.44;5079281;28;45492;-75
2022/08/09 06:26:56;;;;;;;;;10.67;10.67;;;;;19.98;59.42;101937.41;5075340;28;45360;-76
2022/08/09 06:29:22;;;;;;;;;8.67;8.67;;;;;19.99;58.34;101937.19;5072549;28;45499;-75
2022/08/09 06:31:48;;;;;;;;;10.33;10.33;;;;;20.08;58.82;101945.13;5058734;28;45341;-75
2022/08/09 06:34:13;;;;;;;;;11.00;11.00;;;;;20.06;58.85;101943.44;5069236;28;47035;-75
2022/08/09 06:36:38;;;;;;;;;9.33;9.33;;;;;20.10;58.87;101934.94;5071526;28;45490;-75
2022/08/09 06:39:04;;;;;;;;;10.00;10.00;;;;;20.17;59.20;101946.56;5077877;28;45319;-76
2022/08/09 06:41:29;;;;;;;;;9.00;9.00;;;;;20.22;58.69;101954.03;5076761;28;45910;-76
2022/08/09 06:43:55;;;;;;;;;9.67;9.67;;;;;20.22;58.32;101941.38;5078855;28;45418;-75
2022/08/09 06:46:21;;;;;;;;;9.33;9.00;;;;;20.27;58.60;101954.22;5079411;28;45333;-76
2022/08/09 06:48:46;;;;;;;;;13.00;10.33;;;;;20.30;58.58;101951.94;5079202;28;45410;-75
2022/08/09 06:51:12;;;;;;;;;9.00;9.00;;;;;20.34;58.59;101954.22;5078900;28;45364;-76
2022/08/09 06:53:37;;;;;;;;;10.67;10.67;;;;;20.36;58.47;101952.13;5078972;28;45292;-76
2022/08/09 06:56:03;;;;;;;;;12.00;10.33;;;;;20.39;58.45;101957.13;5078814;28;45420;-76
2022/08/09 06:58:29;;;;;;;;;11.67;9.33;;;;;20.46;58.50;101951.69;5066197;27;45373;-75
2022/08/09 07:00:54;;;;;;;;;13.00;12.00;;;;;20.50;57.82;101948.38;5058143;28;45304;-76
2022/08/09 07:03:21;;;;;;;;;10.67;10.67;;;;;20.58;57.98;101960.81;5058544;28;46371;-77
2022/08/09 07:05:47;;;;;;;;;7.67;7.67;;;;;20.63;58.18;101968.28;5058880;27;45378;-74
2022/08/09 07:08:12;;;;;;;;;9.00;9.00;;;;;20.72;57.79;101964.31;5064432;28;45401;-75
2022/08/09 07:10:38;;;;;;;;;9.00;8.33;;;;;20.78;58.04;101966.16;5062051;28;45787;-75
2022/08/09 07:13:03;;;;;;;;;9.33;9.33;;;;;20.86;57.66;101956.97;5070904;28;45452;-74
2022/08/09 07:15:28;;;;;;;;;12.33;11.33;;;;;20.92;57.11;101958.03;5058484;28;45267;-74
2022/08/09 07:17:54;;;;;;;;;11.67;11.00;;;;;20.98;56.99;101959.03;5084890;27;45966;-74
2022/08/09 07:20:19;;;;;;;;;12.00;11.67;;;;;21.02;57.08;101962.97;5079075;27;45318;-74
2022/08/09 07:22:45;;;;;;;;;10.67;10.00;;;;;21.12;57.21;101962.50;5077662;28;54495;-74
2022/08/09 07:25:10;;;;;;;;;11.00;11.00;;;;;21.21;57.13;101969.31;5063681;27;45499;-74
2022/08/09 07:27:40;;;;;;;;;9.00;9.00;;;;;21.31;56.67;101971.56;5067883;28;45435;-76
2022/08/09 07:30:06;;;;;;;;;12.33;12.33;;;;;21.34;56.47;101968.41;5070763;28;46247;-76
2022/08/09 07:32:32;;;;;;;;;11.00;10.67;;;;;21.41;56.68;101968.38;5063209;27;45310;-74
2022/08/09 07:34:57;;;;;;;;;9.00;9.00;;;;;21.46;56.12;101960.41;5064323;28;45768;-75
2022/08/09 07:37:22;;;;;;;;;11.00;11.00;;;;;21.53;55.68;101966.66;5080904;28;45350;-75
2022/08/09 07:39:47;;;;;;;;;11.67;11.67;;;;;21.61;55.59;101970.13;5082268;28;45419;-74
2022/08/09 07:42:13;;;;;;;;;11.67;11.00;;;;;21.66;55.97;101976.53;5081550;28;52755;-73
2022/08/09 07:44:39;;;;;;;;;9.00;9.00;;;;;21.74;55.73;101971.91;5083976;27;45177;-74
2022/08/09 07:47:04;;;;;;;;;9.00;7.33;;;;;21.84;55.28;101963.34;5082233;28;45395;-75
2022/08/09 07:49:30;;;;;;;;;10.67;9.67;;;;;21.91;54.80;101969.50;5082277;28;45722;-74
2022/08/09 07:51:55;;;;;;;;;9.67;9.33;;;;;21.99;54.83;101969.22;5082001;28;45397;-75
2022/08/09 07:54:20;;;;;;;;;11.33;11.00;;;;;22.07;54.56;101955.44;5080602;28;45327;-76
2022/08/09 07:56:46;;;;;;;;;10.33;10.00;;;;;22.18;54.28;101970.09;5079211;28;45460;-76
2022/08/09 07:59:11;;;;;;;;;10.67;9.00;;;;;22.25;54.22;101971.91;5089269;27;46972;-75
2022/08/09 08:01:37;;;;;;;;;9.67;9.67;;;;;22.28;54.35;101958.75;5079066;28;46325;-75
2022/08/09 08:04:02;;;;;;;;;9.67;9.67;;;;;22.43;54.51;101961.09;5079480;27;45449;-75
2022/08/09 08:06:28;;;;;;;;;9.67;9.67;;;;;22.53;53.66;101966.00;5067815;28;45695;-74
2022/08/09 08:08:54;;;;;;;;;10.50;10.50;;;;;22.58;53.70;101959.94;5070973;28;46325;-74
2022/08/09 08:11:20;;;;;;;;;11.00;10.67;;;;;22.68;52.99;101956.69;5063052;28;54565;-76
2022/08/09 08:13:46;;;;;;;;;9.67;9.67;;;;;22.76;52.93;101960.97;5065728;28;45481;-75
2022/08/09 08:16:11;;;;;;;;;11.00;11.00;;;;;22.87;53.39;101962.94;5072093;27;45429;-75
2022/08/09 08:18:36;;;;;;;;;8.67;7.67;;;;;22.97;52.79;101966.97;5065402;28;45414;-77
2022/08/09 08:21:01;;;;;;;;;10.00;9.33;;;;;23.08;52.18;101972.44;5075257;28;47486;-74
2022/08/09 08:23:27;;;;;;;;;8.00;8.00;;;;;23.19;52.43;101970.84;5073769;28;45301;-75
2022/08/09 08:25:52;;;;;;;;;9.33;9.33;;;;;23.25;52.13;101963.66;5080408;28;45263;-75
2022/08/09 08:28:18;;;;;;;;;11.00;10.00;;;;;23.38;51.77;101972.72;5080106;27;45321;-75
2022/08/09 08:30:44;;;;;;;;;10.00;9.00;;;;;23.42;51.26;101969.31;5080058;28;46119;-75
2022/08/09 08:33:09;;;;;;;;;10.33;10.33;;;;;23.53;51.09;101972.28;5081891;28;45460;-76
2022/08/09 08:35:35;;;;;;;;;10.00;9.67;;;;;23.58;50.62;101975.09;5095519;27;45733;-77
2022/08/09 08:38:00;;;;;;;;;9.00;9.00;;;;;23.68;50.58;101978.06;5081005;28;45476;-75
2022/08/09 08:40:25;;;;;;;;;8.33;8.33;;;;;23.75;50.22;101982.56;5067449;28;46852;-76
2022/08/09 08:42:52;;;;;;;;;10.33;10.00;;;;;23.86;50.09;101968.22;5072988;28;46335;-79
2022/08/09 08:45:31;;;;;;;;;11.00;10.00;;;;;23.99;49.92;101974.47;5062339;28;45508;-78
2022/08/09 08:47:56;;;;;;;;;8.33;8.00;;;;;24.06;49.65;101969.72;5077851;28;45687;-76
2022/08/09 08:50:22;;;;;;;;;9.67;9.67;;;;;24.12;49.46;101971.50;5072102;28;47420;-75
2022/08/09 08:52:48;;;;;;;;;10.33;9.67;;;;;24.20;49.44;101973.06;5067475;27;45523;-78
2022/08/09 08:55:14;;;;;;;;;12.67;11.00;;;;;24.28;48.93;101970.03;5080642;28;45408;-76
2022/08/09 08:57:40;;;;;;;;;8.33;8.33;;;;;24.37;48.66;101975.91;5077503;28;45584;-75
2022/08/09 09:00:09;;;;;;;;;10.67;10.00;;;;;24.44;48.53;101968.47;5066690;28;46198;-75
2022/08/09 09:02:35;;;;;;;;;10.33;9.33;;;;;24.54;48.23;101967.03;5068522;28;45291;-75
2022/08/09 09:05:00;;;;;;;;;9.00;9.00;;;;;24.57;48.07;101958.41;5065813;28;45441;-75
2022/08/09 09:07:29;;;;;;;;;8.00;8.00;;;;;24.70;48.52;101963.56;5063050;28;45844;-76
2022/08/09 09:09:57;;;;;;;;;9.33;9.33;;;;;24.84;47.62;101974.13;5071011;28;45406;-78
2022/08/09 09:12:28;;;;;;;;;10.00;10.00;;;;;24.92;47.47;101972.97;5080854;27;45417;-75
2022/08/09 09:14:57;;;;;;;;;8.67;8.67;;;;;24.96;47.16;101966.81;5077688;28;45333;-75
2022/08/09 09:17:22;;;;;;;;;9.00;9.00;;;;;25.00;46.52;101959.00;5081023;27;45562;-74
2022/08/09 09:19:48;;;;;;;;;9.33;9.33;;;;;25.11;46.52;101972.78;5085184;28;46220;-76
2022/08/09 09:22:15;;;;;;;;;10.00;9.00;;;;;25.19;46.61;101964.22;5091250;27;45413;-76
2022/08/09 09:24:44;;;;;;;;;9.33;9.33;;;;;25.23;46.43;101967.31;5083745;28;45317;-75
2022/08/09 09:27:13;;;;;;;;;7.67;7.67;;;;;25.32;46.14;101963.94;5085362;28;45452;-75
2022/08/09 09:29:41;;;;;;;;;7.67;7.67;;;;;25.39;46.24;101963.78;5080987;27;46404;-76
2022/08/09 09:32:07;;;;;;;;;8.00;8.00;;;;;25.50;45.56;101963.97;5083696;28;45807;-77
2022/08/09 09:34:33;;;;;;;;;7.33;7.33;;;;;25.56;45.41;101960.25;5073388;28;46366;-78
2022/08/09 09:37:00;;;;;;;;;9.00;9.00;;;;;25.67;45.36;101961.25;5065587;28;45918;-77
2022/08/09 09:39:28;;;;;;;;;11.33;8.67;;;;;25.78;45.27;101960.38;5063791;28;46413;-79
2022/08/09 09:41:55;;;;;;;;;9.33;9.00;;;;;25.91;44.49;101961.09;5096474;27;46240;-78
2022/08/09 09:44:24;;;;;;;;;10.00;9.67;;;;;25.99;44.79;101960.69;5076501;28;45486;-78
2022/08/09 09:47:03;;;;;;;;;11.00;11.00;;;;;26.06;43.68;101947.72;5065503;28;46575;-77
2022/08/09 09:49:29;;;;;;;;;8.33;8.33;;;;;26.16;44.22;101954.38;5069885;28;47462;-76
2022/08/09 09:52:07;;;;;;;;;11.00;11.00;;;;;26.26;43.91;101946.34;5074028;28;45414;-76
2022/08/09 09:54:39;;;;;;;;;9.00;8.33;;;;;26.38;44.24;101946.25;5068387;28;45422;-76
2022/08/09 09:57:14;;;;;;;;;10.00;10.00;;;;;26.52;43.34;101954.91;5078838;28;45507;-76
2022/08/09 09:59:40;;;;;;;;;9.33;9.33;;;;;26.57;43.01;101952.22;5077970;28;47224;-77
2022/08/09 10:02:07;;;;;;;;;9.00;9.00;;;;;26.63;41.84;101944.13;5079028;27;45832;-77
2022/08/09 10:04:32;;;;;;;;;6.67;6.67;;;;;26.70;42.69;101948.28;5080155;28;45391;-77
2022/08/09 10:06:58;;;;;;;;;7.67;7.67;;;;;26.80;42.06;101939.41;5068477;28;45529;-77
2022/08/09 10:09:23;;;;;;;;;8.00;8.00;;;;;26.94;41.65;101942.53;5059313;28;48174;-76
2022/08/09 10:12:00;;;;;;;;;9.00;9.00;;;;;27.09;41.87;101944.63;5074137;27;45416;-76
2022/08/09 10:14:29;;;;;;;;;9.00;9.00;;;;;27.16;41.35;101938.13;5070582;28;45479;-75
2022/08/09 10:16:55;;;;;;;;;9.67;9.33;;;;;27.31;41.17;101942.91;5085304;27;45467;-77
2022/08/09 10:19:33;;;;;;;;;11.00;10.00;;;;;27.44;40.00;101930.72;5094619;27;48133;-77
2022/08/09 10:21:59;;;;;;;;;9.33;9.33;;;;;27.58;40.64;101925.66;5079753;28;45337;-78
2022/08/09 10:24:25;;;;;;;;;8.67;8.67;;;;;27.79;39.75;101929.41;5091259;27;45382;-77
2022/08/09 10:26:54;;;;;;;;;7.00;7.00;;;;;28.00;38.99;101928.69;5080001;28;45567;-76
2022/08/09 10:29:21;;;;;;;;;8.00;8.00;;;;;28.16;39.45;101930.41;5072012;28;46375;-81
2022/08/09 10:31:47;;;;;;;;;9.00;9.00;;;;;28.33;38.40;101929.44;5094209;27;45451;-77
2022/08/09 10:34:14;;;;;;;;;7.33;7.33;;;;;28.51;38.08;101922.69;5080089;28;45325;-77
2022/08/09 10:36:41;;;;;;;;;9.00;9.00;;;;;28.72;38.28;101931.78;5079755;28;45433;-78
2022/08/09 10:39:06;;;;;;;;;9.00;9.00;;;;;28.89;38.25;101933.44;5078891;28;48658;-78
2022/08/09 10:41:32;;;;;;;;;8.00;8.00;;;;;29.05;37.53;101922.53;5079426;28;45299;-77
2022/08/09 10:43:58;;;;;;;;;9.00;9.00;;;;;29.22;37.22;101922.28;5083461;27;45368;-78
2022/08/09 10:46:31;;;;;;;;;8.67;8.67;;;;;29.41;36.27;101940.88;5080117;28;45472;-78
2022/08/09 10:49:12;;;;;;;;;10.67;10.67;;;;;29.60;36.58;101931.06;5074705;28;48266;-78
2022/08/09 10:52:17;;;;;;;;;7.67;7.67;;;;;29.82;36.01;101929.94;5075574;28;45364;-79
2022/08/09 10:54:42;;;;;;;;;7.67;7.67;;;;;30.03;35.67;101935.38;5074791;28;45482;-78
2022/08/09 10:57:12;;;;;;;;;9.33;9.33;;;;;30.14;36.02;101918.88;5072540;28;45493;-77
2022/08/09 10:59:38;;;;;;;;;9.00;7.00;;;;;30.34;35.79;101907.88;5072045;28;48109;-80
2022/08/09 11:02:07;;;;;;;;;8.33;8.33;;;;;30.52;34.97;101908.31;5078141;28;45358;-78
2022/08/09 11:04:34;;;;;;;;;9.33;9.33;;;;;30.76;34.76;101915.06;5081475;28;45580;-77
2022/08/09 11:07:02;;;;;;;;;8.67;8.67;;;;;30.95;34.82;101920.72;5066069;28;47006;-79
2022/08/09 11:09:36;;;;;;;;;9.33;9.33;;;;;31.15;34.08;101908.75;5080070;28;45473;-78
2022/08/09 11:12:11;;;;;;;;;8.00;8.00;;;;;31.29;33.51;101910.81;5063323;28;45331;-79
2022/08/09 11:14:53;;;;;;;;;9.00;9.00;;;;;31.32;33.66;101908.34;5082203;28;45539;-79
2022/08/09 11:17:19;;;;;;;;;8.00;8.00;;;;;31.51;32.88;101913.13;5069997;27;45233;-78
2022/08/09 11:20:08;;;;;;;;;9.00;8.00;;;;;31.63;32.65;101909.97;5080469;28;46089;-77
2022/08/09 11:22:43;;;;;;;;;8.67;8.00;;;;;31.78;32.89;101909.00;5064062;28;45437;-79